Norfolk, Virginia
Traffic Map
Current Weather Conditions
Norfolk, Virginia
Overcast
Overcast
26°
Feels Like: 12°
Wind Chill: 12° Ceiling: 2500
Heat Index: 26° Visibility: 10mi
Dew Point: 17° Wind: 20mph
Humidity: 69% Direction: 360° (N)
Pressure: 30.41in Gusts: 31mph
Raw Report DataKORF 060851Z AUTO 36017G27KT 10SM BKN025 OVC090 M03/M08 A3041 RMK AO2 PK WND 35027/0848 SLP298 T10331083 53007 TSNO
Traffic Incident Summary
Active as of:
Severity:
Category:
InformationThere was an issue retrieving the traffic information for this location. Please try a different location or try again shortly.
Advertisements
Track Severe Weather on mobile